Blanchard, ID (83804)

11:43 PM PDT on April 27, 2017 (GMT -0700)
Stoneridge Golf Community | | Change Station

Elev 2274 ft 48.01 °N, 117.00 °W | Updated 12 minutes ago

Mostly Cloudy
Mostly Cloudy
41.0 °F
Feels Like 41 °F
N
0.0
Wind Variable Wind from ENE

Today
High -- | Low -- °F
--% Chance of Precip.
Yesterday
High -- | Low -- °F
Precip. -- in
Pressure 30.03 in
Visibility 10.0 miles
Clouds Overcast 5000 ft
Windchill 41 °F
Dew Point 41 °F
Humidity 99%
Rainfall 0.02 in
Snow Depth Not available.
5:35 AM 7:56 PM
Waxing Crescent, 5% visible
METAR KCOE 280556Z AUTO 01004KT 10SM OVC050 06/03 A2995 RMK AO2 RAE0458 SLP168 P0000 60000 T00560033 10083 20056 51009
Pressure 30.03 in
Visibility 10.0 miles
Clouds Overcast 5000 ft
Windchill 41 °F
Dew Point 41 °F
Humidity 99%
Rainfall 0.02 in
Snow Depth Not available.
5:35 AM 7:56 PM
Waxing Crescent, 5% visible
METAR KCOE 280556Z AUTO 01004KT 10SM OVC050 06/03 A2995 RMK AO2 RAE0458 SLP168 P0000 60000 T00560033 10083 20056 51009

Get Severe Weather Alerts

Thanks for signing up!

Be on the lookout for a verification email in your inbox.

You'll start receiving the daily forecast at 8 AM.

×

10-Day Weather Forecast

Almanac

Astronomy

Apr. 27, 2017 Rise Set
Actual Time
Civil Twilight
Nautical Twilight
Astronomical Twilight
Moon
Length of Visible Light
Length of Day
Tomorrow will be .
, % of the Moon is Illuminated

Today's Extremes

State Highs State Lows

Community

WunderPhotos

WunderBlog® & News

Nearby

Air Quality

  Air Quality AQ Index Pollutant
Not available.

Snow Depth

Station Depth Elevation

Earthquake Activity

City Distance Mag. Time & Date
Minimum magnitude displayed is 2.5.

Coastal Water Temperatures

Place Temperature

Stations

Nearby Weather Stations

Station Location Temp. Windchill Dew Point Humidity Wind Precip. Elev Updated Type
                   

Watches & Warnings

There are currently no watches in effect.